DLH401 EDDF-KEWR
Flight info
| Callsign | DLH401 |
|---|---|
| Flight time | N/A |
| Altitude | 36000 |
| Route | OBOKA3M OBOKA Z29 TORNU DCT BREDA DCT GALSO Q63 KOPUL Q60 OKSAW DCT FELCA DCT OFSOX DCT SLANY DCT MALOT/M081F380 NATE RIKAL/N0469F380 N576B ANATI DCT IMORI DCT HANAA FLOSI4 |
| Aircraft | A346/H-SDE2E3FGHIJ3J4J5M1RWXY/LB1D1 |
Departure
| Time | N/A |
|---|---|
| Airport | Frankfurt Main Airport (EDDF) |
Arrival
| Time | 2026-04-24 19:33 |
|---|---|
| Airport | Newark Liberty International Airport (KEWR) |
| Time | Latitude | Longitude | Altitude | Speed | Heading |
|---|---|---|---|---|---|
| 2026-04-24 19:14 | 41.82292 | -74.21596 | 23956 ft | 477 kts | 205° |
| 2026-04-24 19:14 | 41.79138 | -74.22941 | 23485 ft | 474 kts | 205° |
| 2026-04-24 19:15 | 41.76010 | -74.24275 | 22934 ft | 470 kts | 205° |
| 2026-04-24 19:15 | 41.72916 | -74.25592 | 22450 ft | 464 kts | 205° |
| 2026-04-24 19:15 | 41.69854 | -74.26894 | 21968 ft | 459 kts | 205° |
| 2026-04-24 19:15 | 41.66822 | -74.28181 | 21496 ft | 455 kts | 205° |
| 2026-04-24 19:16 | 41.60875 | -74.30704 | 20576 ft | 448 kts | 205° |
| 2026-04-24 19:16 | 41.57917 | -74.31958 | 20107 ft | 444 kts | 205° |
| 2026-04-24 19:16 | 41.54977 | -74.33205 | 19644 ft | 442 kts | 205° |
| 2026-04-24 19:17 | 41.52061 | -74.34454 | 19145 ft | 440 kts | 205° |
| 2026-04-24 19:17 | 41.49156 | -74.35711 | 18676 ft | 438 kts | 205° |
| 2026-04-24 19:17 | 41.46267 | -74.36960 | 18205 ft | 435 kts | 205° |
| 2026-04-24 19:17 | 41.43391 | -74.38202 | 17682 ft | 432 kts | 205° |
| 2026-04-24 19:18 | 41.40536 | -74.39432 | 17206 ft | 429 kts | 205° |
| 2026-04-24 19:18 | 41.37709 | -74.40647 | 16735 ft | 425 kts | 205° |
| 2026-04-24 19:18 | 41.34942 | -74.41835 | 16277 ft | 422 kts | 205° |
| 2026-04-24 19:18 | 41.32159 | -74.43033 | 15790 ft | 419 kts | 205° |
| 2026-04-24 19:19 | 41.29395 | -74.44219 | 15343 ft | 415 kts | 205° |
| 2026-04-24 19:19 | 41.26656 | -74.45395 | 14900 ft | 412 kts | 205° |
| 2026-04-24 19:19 | 41.23944 | -74.46558 | 14470 ft | 408 kts | 205° |
| 2026-04-24 19:19 | 41.21233 | -74.47719 | 14031 ft | 408 kts | 205° |
| 2026-04-24 19:20 | 41.18510 | -74.48886 | 13669 ft | 413 kts | 205° |
| 2026-04-24 19:20 | 41.15755 | -74.50059 | 13232 ft | 413 kts | 205° |
| 2026-04-24 19:20 | 41.13029 | -74.51220 | 12703 ft | 409 kts | 204° |
| 2026-04-24 19:20 | 41.10370 | -74.52351 | 12209 ft | 406 kts | 204° |
| 2026-04-24 19:21 | 41.07648 | -74.53378 | 11683 ft | 406 kts | 200° |
| 2026-04-24 19:21 | 41.04866 | -74.54055 | 11190 ft | 407 kts | 193° |
| 2026-04-24 19:21 | 41.02041 | -74.54406 | 10710 ft | 407 kts | 189° |
| 2026-04-24 19:21 | 40.99233 | -74.54651 | 10205 ft | 401 kts | 189° |
| 2026-04-24 19:22 | 40.97397 | -74.54795 | 9902 ft | 388 kts | 189° |
| 2026-04-24 19:22 | 40.93906 | -74.55075 | 9360 ft | 361 kts | 189° |
| 2026-04-24 19:22 | 40.91469 | -74.55289 | 9037 ft | 343 kts | 189° |
| 2026-04-24 19:22 | 40.89145 | -74.55500 | 8657 ft | 327 kts | 189° |
| 2026-04-24 19:23 | 40.86957 | -74.55700 | 8298 ft | 314 kts | 189° |
| 2026-04-24 19:23 | 40.84783 | -74.55904 | 7918 ft | 312 kts | 189° |
| 2026-04-24 19:23 | 40.82604 | -74.56042 | 7496 ft | 315 kts | 185° |
| 2026-04-24 19:23 | 40.80406 | -74.55978 | 7031 ft | 316 kts | 181° |
| 2026-04-24 19:24 | 40.78221 | -74.55857 | 6599 ft | 311 kts | 181° |
| 2026-04-24 19:24 | 40.76082 | -74.55728 | 6198 ft | 305 kts | 180° |
| 2026-04-24 19:24 | 40.73971 | -74.55603 | 5773 ft | 302 kts | 180° |
| 2026-04-24 19:24 | 40.71886 | -74.55484 | 5364 ft | 299 kts | 180° |
| 2026-04-24 19:25 | 40.69826 | -74.55373 | 4960 ft | 292 kts | 179° |
| 2026-04-24 19:25 | 40.67862 | -74.55268 | 4757 ft | 280 kts | 179° |
| 2026-04-24 19:25 | 40.65912 | -74.55163 | 4590 ft | 275 kts | 179° |
| 2026-04-24 19:25 | 40.64007 | -74.54976 | 4232 ft | 276 kts | 174° |
| 2026-04-24 19:26 | 40.62101 | -74.54520 | 3674 ft | 278 kts | 168° |
| 2026-04-24 19:26 | 40.60335 | -74.53610 | 3363 ft | 271 kts | 149° |
| 2026-04-24 19:26 | 40.58853 | -74.52153 | 3076 ft | 263 kts | 131° |
| 2026-04-24 19:26 | 40.57914 | -74.50167 | 2963 ft | 248 kts | 113° |
| 2026-04-24 19:27 | 40.57315 | -74.48101 | 2975 ft | 240 kts | 109° |
| 2026-04-24 19:27 | 40.56776 | -74.46031 | 2825 ft | 238 kts | 108° |
| 2026-04-24 19:27 | 40.56256 | -74.43966 | 2709 ft | 237 kts | 108° |
| 2026-04-24 19:27 | 40.55741 | -74.41932 | 2545 ft | 238 kts | 108° |
| 2026-04-24 19:28 | 40.54209 | -74.35899 | 2495 ft | 237 kts | 108° |
| 2026-04-24 19:28 | 40.53686 | -74.33859 | 2495 ft | 234 kts | 108° |
| 2026-04-24 19:29 | 40.52678 | -74.29802 | 2494 ft | 232 kts | 97° |
| 2026-04-24 19:29 | 40.52846 | -74.27720 | 2489 ft | 230 kts | 63° |
| 2026-04-24 19:29 | 40.53835 | -74.26119 | 2497 ft | 226 kts | 32° |
| 2026-04-24 19:30 | 40.55163 | -74.25218 | 2467 ft | 213 kts | 20° |
| 2026-04-24 19:30 | 40.56501 | -74.24516 | 2486 ft | 201 kts | 21° |
| 2026-04-24 19:30 | 40.57753 | -74.23794 | 2238 ft | 191 kts | 24° |
| 2026-04-24 19:30 | 40.58925 | -74.23061 | 1988 ft | 182 kts | 25° |
| 2026-04-24 19:31 | 40.60028 | -74.22353 | 1751 ft | 171 kts | 25° |
| 2026-04-24 19:31 | 40.61056 | -74.21696 | 1500 ft | 158 kts | 25° |
| 2026-04-24 19:31 | 40.62037 | -74.21079 | 1289 ft | 156 kts | 25° |
| 2026-04-24 19:31 | 40.63012 | -74.20469 | 1075 ft | 154 kts | 25° |
| 2026-04-24 19:32 | 40.63959 | -74.19868 | 861 ft | 153 kts | 27° |
| 2026-04-24 19:32 | 40.64943 | -74.19229 | 702 ft | 159 kts | 29° |
| 2026-04-24 19:32 | 40.65919 | -74.18600 | 511 ft | 159 kts | 28° |
| 2026-04-24 19:32 | 40.66901 | -74.17980 | 303 ft | 153 kts | 29° |
| 2026-04-24 19:33 | 40.67870 | -74.17363 | 106 ft | 156 kts | 30° |
| 2026-04-24 19:33 | 40.68809 | -74.16756 | 30 ft | 134 kts | 26° |
| 2026-04-24 19:33 | 40.69449 | -74.16351 | 33 ft | 71 kts | 25° |
| 2026-04-24 19:33 | 40.69750 | -74.16301 | 30 ft | 16 kts | 355° |
| 2026-04-24 19:34 | 40.69833 | -74.16331 | 30 ft | 11 kts | 310° |
| 2026-04-24 19:34 | 40.69882 | -74.16437 | 28 ft | 16 kts | 294° |
| 2026-04-24 19:34 | 40.69905 | -74.16560 | 29 ft | 12 kts | 276° |
| 2026-04-24 19:34 | 40.69859 | -74.16625 | 29 ft | 11 kts | 207° |
| 2026-04-24 19:35 | 40.69777 | -74.16681 | 30 ft | 15 kts | 207° |
| 2026-04-24 19:35 | 40.69674 | -74.16749 | 30 ft | 18 kts | 206° |
| 2026-04-24 19:35 | 40.69550 | -74.16827 | 31 ft | 21 kts | 205° |
| 2026-04-24 19:35 | 40.69408 | -74.16916 | 31 ft | 24 kts | 206° |
| 2026-04-24 19:36 | 40.69251 | -74.17016 | 30 ft | 26 kts | 205° |
| 2026-04-24 19:36 | 40.69076 | -74.17128 | 30 ft | 29 kts | 207° |
| 2026-04-24 19:36 | 40.68914 | -74.17233 | 31 ft | 22 kts | 206° |
| 2026-04-24 19:36 | 40.68777 | -74.17321 | 31 ft | 23 kts | 206° |
| 2026-04-24 19:37 | 40.68623 | -74.17417 | 32 ft | 24 kts | 205° |
| 2026-04-24 19:37 | 40.68578 | -74.17499 | 31 ft | 13 kts | 279° |
| 2026-04-24 19:37 | 40.68620 | -74.17624 | 31 ft | 17 kts | 295° |
| 2026-04-24 19:37 | 40.68665 | -74.17784 | 31 ft | 20 kts | 286° |
| 2026-04-24 19:38 | 40.68617 | -74.17956 | 31 ft | 23 kts | 224° |
| 2026-04-24 19:38 | 40.68572 | -74.18089 | 31 ft | 14 kts | 246° |
| 2026-04-24 19:38 | 40.68506 | -74.18204 | 31 ft | 17 kts | 255° |
| 2026-04-24 19:38 | 40.68468 | -74.18274 | 31 ft | 3 kts | 207° |
| 2026-04-24 19:39 | 40.68453 | -74.18280 | 31 ft | 0 kts | 187° |
| 2026-04-24 19:39 | 40.68449 | -74.18280 | 30 ft | 0 kts | 187° |